Time;durP1;ratioP1;P1;durP2;ratioP2;P2;SDS_P1;SDS_P2;PMS_P1;PMS_P2;Temp;Humidity;BMP_temperature;BMP_pressure;BME280_temperature;BME280_humidity;BME280_pressure;Samples;Min_cycle;Max_cycle;Signal;HPM_P1;HPM_P2
2022/06/29 00:00:44;;;;;;;8.90;5.10;;;;;;;;;;4921374;29;19923;-76
2022/06/29 00:03:29;;;;;;;8.95;5.80;;;;;;;;;;4921769;29;20490;-76
2022/06/29 00:06:14;;;;;;;13.07;5.60;;;;;;;;;;4921436;29;20055;-77
2022/06/29 00:09:00;;;;;;;5.95;5.13;;;;;;;;;;4920488;29;20048;-76
2022/06/29 00:11:46;;;;;;;10.50;4.78;;;;;;;;;;4920416;29;20052;-76
2022/06/29 00:14:32;;;;;;;12.32;4.90;;;;;;;;;;4921097;29;20052;-76
2022/06/29 00:17:17;;;;;;;6.82;4.43;;;;;;;;;;4920299;29;20052;-77
2022/06/29 00:20:05;;;;;;;8.23;4.82;;;;;;;;;;4919897;29;20051;-76
2022/06/29 00:22:50;;;;;;;10.18;4.50;;;;;;;;;;4921031;29;20052;-79
2022/06/29 00:25:35;;;;;;;6.95;4.78;;;;;;;;;;4920713;29;20048;-79
2022/06/29 00:28:23;;;;;;;10.60;4.93;;;;;;;;;;4925920;29;20044;-79
2022/06/29 00:31:09;;;;;;;9.38;4.55;;;;;;;;;;4926356;29;20044;-79
2022/06/29 00:33:54;;;;;;;8.18;5.20;;;;;;;;;;4921476;29;20044;-79
2022/06/29 00:36:40;;;;;;;8.90;4.97;;;;;;;;;;4919154;29;20048;-78
2022/06/29 00:39:26;;;;;;;7.88;4.72;;;;;;;;;;4920099;29;20048;-79
2022/06/29 00:42:11;;;;;;;9.10;5.20;;;;;;;;;;4920001;29;20040;-80
2022/06/29 00:44:57;;;;;;;10.43;5.13;;;;;;;;;;4927429;29;20048;-79
2022/06/29 00:47:43;;;;;;;6.07;5.13;;;;;;;;;;4927061;29;20048;-79
2022/06/29 00:50:32;;;;;;;9.13;4.75;;;;;;;;;;4922160;29;20390;-79
2022/06/29 00:53:29;;;;;;;8.48;4.78;;;;;;;;;;4919855;29;20048;-79
2022/06/29 00:56:15;;;;;;;10.82;4.93;;;;;;;;;;4919595;29;20056;-79
2022/06/29 00:59:04;;;;;;;12.07;4.90;;;;;;;;;;4907687;29;20048;-80
2022/06/29 01:01:55;;;;;;;9.48;5.07;;;;;;;;;;4930221;29;20044;-80
2022/06/29 01:04:42;;;;;;;7.20;4.97;;;;;;;;;;4927094;29;20044;-79
2022/06/29 01:07:30;;;;;;;12.02;4.60;;;;;;;;;;4919795;29;20051;-80
2022/06/29 01:10:16;;;;;;;6.68;4.70;;;;;;;;;;4926970;29;20047;-80
2022/06/29 01:13:01;;;;;;;5.75;4.90;;;;;;;;;;4922182;29;20040;-79
2022/06/29 01:15:47;;;;;;;7.55;4.70;;;;;;;;;;4919018;29;20052;-80
2022/06/29 01:18:32;;;;;;;11.15;5.03;;;;;;;;;;4919375;29;20048;-81
2022/06/29 01:21:20;;;;;;;6.50;4.90;;;;;;;;;;4919452;29;20048;-80
2022/06/29 01:24:05;;;;;;;6.22;5.25;;;;;;;;;;4918880;29;20040;-80
2022/06/29 01:26:51;;;;;;;8.50;4.90;;;;;;;;;;4918485;29;20044;-78
2022/06/29 01:29:36;;;;;;;6.85;4.50;;;;;;;;;;4919422;29;20494;-79
2022/06/29 01:32:22;;;;;;;9.48;5.22;;;;;;;;;;4919975;29;20402;-77
2022/06/29 01:35:16;;;;;;;11.65;5.40;;;;;;;;;;4918704;29;20056;-76
2022/06/29 01:38:05;;;;;;;7.10;5.32;;;;;;;;;;4904935;29;20048;-74
2022/06/29 01:40:50;;;;;;;14.52;5.47;;;;;;;;;;4917537;29;20414;-76
2022/06/29 01:43:35;;;;;;;8.60;5.18;;;;;;;;;;4918429;29;20048;-76
2022/06/29 01:46:22;;;;;;;9.55;5.57;;;;;;;;;;4924705;29;20052;-77
2022/06/29 01:49:07;;;;;;;9.05;5.82;;;;;;;;;;4924724;29;20048;-76
2022/06/29 01:51:52;;;;;;;6.63;5.25;;;;;;;;;;4918676;29;20390;-75
2022/06/29 01:54:39;;;;;;;9.95;5.38;;;;;;;;;;4917782;29;20044;-76
2022/06/29 01:57:24;;;;;;;10.25;5.35;;;;;;;;;;4918408;29;20052;-76
2022/06/29 02:00:10;;;;;;;7.38;5.78;;;;;;;;;;4924643;29;20044;-76
2022/06/29 02:02:55;;;;;;;6.45;5.07;;;;;;;;;;4917736;29;20490;-76
2022/06/29 02:05:40;;;;;;;6.97;5.28;;;;;;;;;;4917880;29;20051;-76
2022/06/29 02:08:25;;;;;;;10.73;5.15;;;;;;;;;;4917751;29;20040;-76
2022/06/29 02:11:14;;;;;;;7.13;5.22;;;;;;;;;;4918118;29;20048;-77
2022/06/29 02:14:03;;;;;;;7.47;5.40;;;;;;;;;;4917988;29;20398;-76
2022/06/29 02:16:49;;;;;;;9.10;6.20;;;;;;;;;;4917478;29;20048;-76
2022/06/29 02:19:34;;;;;;;10.95;6.82;;;;;;;;;;4917975;29;20052;-76
2022/06/29 02:22:20;;;;;;;12.30;6.68;;;;;;;;;;4917525;29;20394;-77
2022/06/29 02:25:07;;;;;;;9.10;7.78;;;;;;;;;;4917628;29;20486;-76
2022/06/29 02:27:52;;;;;;;9.95;7.75;;;;;;;;;;4918121;29;20052;-76
2022/06/29 02:36:45;;;;;;;9.75;6.72;;;;;;;;;;4917129;29;20048;-78
2022/06/29 02:39:30;;;;;;;9.85;5.55;;;;;;;;;;4917597;29;20048;-76
2022/06/29 02:42:16;;;;;;;12.15;5.70;;;;;;;;;;4917617;29;20052;-77
2022/06/29 02:45:02;;;;;;;13.40;6.20;;;;;;;;;;4916688;29;20052;-76
2022/06/29 02:47:47;;;;;;;8.50;6.40;;;;;;;;;;4917132;29;20052;-77
2022/06/29 02:50:33;;;;;;;8.27;6.55;;;;;;;;;;4917307;29;20402;-76
2022/06/29 02:53:19;;;;;;;11.38;6.55;;;;;;;;;;4923417;29;20048;-77
2022/06/29 02:56:04;;;;;;;13.25;6.97;;;;;;;;;;4919483;29;20510;-77
2022/06/29 02:58:50;;;;;;;9.70;6.70;;;;;;;;;;4918998;29;20036;-76
2022/06/29 03:01:35;;;;;;;7.45;5.80;;;;;;;;;;4917844;29;20497;-76
2022/06/29 03:04:20;;;;;;;8.48;5.65;;;;;;;;;;4919225;29;20040;-77
2022/06/29 03:07:06;;;;;;;9.13;5.60;;;;;;;;;;4918488;29;20051;-77
2022/06/29 03:09:52;;;;;;;9.00;6.38;;;;;;;;;;4925655;29;20047;-77
2022/06/29 03:12:37;;;;;;;13.43;6.63;;;;;;;;;;4917541;29;20040;-77
2022/06/29 03:15:25;;;;;;;9.02;5.88;;;;;;;;;;4918085;29;20055;-77
2022/06/29 03:18:10;;;;;;;8.55;6.10;;;;;;;;;;4919672;29;20052;-77
2022/06/29 03:20:56;;;;;;;9.15;5.32;;;;;;;;;;4918849;29;20048;-78
2022/06/29 03:23:44;;;;;;;9.85;5.82;;;;;;;;;;4918803;29;20052;-77
2022/06/29 03:26:31;;;;;;;8.40;5.45;;;;;;;;;;4916901;29;20044;-77
2022/06/29 03:29:16;;;;;;;9.23;5.25;;;;;;;;;;4917896;29;20398;-76
2022/06/29 03:32:02;;;;;;;8.75;5.53;;;;;;;;;;4919202;29;20048;-77
2022/06/29 03:34:47;;;;;;;8.82;4.95;;;;;;;;;;4918039;29;20040;-79
2022/06/29 03:37:33;;;;;;;11.32;5.00;;;;;;;;;;4917122;29;20049;-76
2022/06/29 03:40:18;;;;;;;5.47;4.60;;;;;;;;;;4918976;29;20048;-77
2022/06/29 03:43:04;;;;;;;7.63;5.38;;;;;;;;;;4916795;29;20052;-77
2022/06/29 03:45:49;;;;;;;10.43;5.05;;;;;;;;;;4916823;29;20052;-77
2022/06/29 03:48:35;;;;;;;7.18;4.60;;;;;;;;;;4916420;29;20052;-77
2022/06/29 03:51:21;;;;;;;8.20;5.00;;;;;;;;;;4917018;29;20044;-76
2022/06/29 03:54:06;;;;;;;5.97;4.93;;;;;;;;;;4916384;29;20056;-77
2022/06/29 03:56:51;;;;;;;6.82;4.57;;;;;;;;;;4922437;29;20052;-76
2022/06/29 03:59:36;;;;;;;6.35;4.57;;;;;;;;;;4923057;29;20053;-76
2022/06/29 04:02:22;;;;;;;7.22;4.45;;;;;;;;;;4923577;29;20044;-77
2022/06/29 04:05:08;;;;;;;7.45;4.63;;;;;;;;;;4919601;29;20406;-77
2022/06/29 04:07:53;;;;;;;9.98;4.50;;;;;;;;;;4920103;29;20048;-78
2022/06/29 04:10:39;;;;;;;5.82;4.30;;;;;;;;;;4925737;29;20047;-78
2022/06/29 04:13:24;;;;;;;10.07;4.32;;;;;;;;;;4905834;29;20052;-77
2022/06/29 04:16:10;;;;;;;8.60;4.55;;;;;;;;;;4919868;29;20052;-77
2022/06/29 04:18:55;;;;;;;7.05;4.80;;;;;;;;;;4920793;29;20044;-77
2022/06/29 04:21:41;;;;;;;7.88;4.50;;;;;;;;;;4920080;29;20039;-77
2022/06/29 04:24:26;;;;;;;6.55;4.50;;;;;;;;;;4925577;29;20406;-79
2022/06/29 04:27:11;;;;;;;6.43;4.70;;;;;;;;;;4926314;29;20044;-77
2022/06/29 04:29:57;;;;;;;11.07;5.07;;;;;;;;;;4919937;29;20401;-78
2022/06/29 04:32:42;;;;;;;10.82;5.22;;;;;;;;;;4926024;29;20494;-77
2022/06/29 04:35:28;;;;;;;14.43;5.00;;;;;;;;;;4919722;29;20391;-77
2022/06/29 04:38:14;;;;;;;10.05;5.28;;;;;;;;;;4918929;29;20048;-78
2022/06/29 04:41:00;;;;;;;10.50;5.20;;;;;;;;;;4925724;29;20052;-78
2022/06/29 04:43:46;;;;;;;8.02;5.38;;;;;;;;;;4919333;29;20044;-77
2022/06/29 04:46:31;;;;;;;10.25;5.43;;;;;;;;;;4918857;29;20052;-79
2022/06/29 04:49:17;;;;;;;15.43;5.47;;;;;;;;;;4919409;29;20478;-78
2022/06/29 04:52:03;;;;;;;6.25;4.57;;;;;;;;;;4919037;29;20048;-77
2022/06/29 04:54:48;;;;;;;12.68;4.60;;;;;;;;;;4925601;29;20498;-78
2022/06/29 04:57:34;;;;;;;8.13;4.65;;;;;;;;;;4919285;29;20052;-78
2022/06/29 05:00:19;;;;;;;8.23;5.30;;;;;;;;;;4918906;29;20111;-78
2022/06/29 05:03:05;;;;;;;7.75;5.20;;;;;;;;;;4919199;29;20048;-78
2022/06/29 05:05:51;;;;;;;10.07;5.72;;;;;;;;;;4924873;29;20474;-79
2022/06/29 05:08:36;;;;;;;15.02;5.28;;;;;;;;;;4918726;29;20493;-78
2022/06/29 05:11:23;;;;;;;9.70;5.57;;;;;;;;;;4918976;29;20052;-78
2022/06/29 05:14:11;;;;;;;9.13;5.13;;;;;;;;;;4918088;29;20066;-79
2022/06/29 05:16:57;;;;;;;14.73;4.85;;;;;;;;;;4917837;29;20044;-77
2022/06/29 05:19:42;;;;;;;11.35;5.07;;;;;;;;;;4918283;29;20492;-79
2022/06/29 05:22:28;;;;;;;9.15;4.82;;;;;;;;;;4918350;29;20056;-78
2022/06/29 05:25:13;;;;;;;7.43;4.53;;;;;;;;;;4918561;29;20075;-78
2022/06/29 05:27:59;;;;;;;8.70;3.95;;;;;;;;;;4918264;29;20040;-78
2022/06/29 05:30:45;;;;;;;7.13;4.15;;;;;;;;;;4918869;29;20044;-78
2022/06/29 05:33:36;;;;;;;9.27;3.95;;;;;;;;;;4918561;29;20040;-77
2022/06/29 05:36:21;;;;;;;6.15;4.57;;;;;;;;;;4917889;29;20040;-77
2022/06/29 05:39:07;;;;;;;8.82;4.35;;;;;;;;;;4918620;29;20040;-78
2022/06/29 05:41:52;;;;;;;7.15;4.32;;;;;;;;;;4903549;29;20060;-77
2022/06/29 05:44:37;;;;;;;7.97;4.40;;;;;;;;;;4917918;29;20048;-78
2022/06/29 05:47:22;;;;;;;6.63;3.72;;;;;;;;;;4916904;29;20040;-78
2022/06/29 05:50:10;;;;;;;5.30;3.95;;;;;;;;;;4915811;29;20048;-77
2022/06/29 05:52:55;;;;;;;5.18;3.45;;;;;;;;;;4916213;29;20044;-77
2022/06/29 05:55:41;;;;;;;8.10;3.40;;;;;;;;;;4922197;29;20060;-77
2022/06/29 05:58:26;;;;;;;4.10;3.40;;;;;;;;;;4917549;29;20052;-77
2022/06/29 06:01:12;;;;;;;8.35;3.72;;;;;;;;;;4924152;29;20060;-77
2022/06/29 06:03:58;;;;;;;4.97;3.28;;;;;;;;;;4922041;29;20044;-77
2022/06/29 06:06:43;;;;;;;7.55;3.72;;;;;;;;;;4926055;29;20064;-77
2022/06/29 06:09:29;;;;;;;5.38;3.40;;;;;;;;;;4931949;29;20052;-77
2022/06/29 06:12:15;;;;;;;8.73;3.67;;;;;;;;;;4927639;29;20482;-78
2022/06/29 06:15:01;;;;;;;4.97;3.13;;;;;;;;;;4917704;29;20052;-77
2022/06/29 06:17:47;;;;;;;4.85;3.35;;;;;;;;;;4927701;29;20052;-78
2022/06/29 06:20:32;;;;;;;4.53;3.22;;;;;;;;;;4918475;29;20048;-78
2022/06/29 06:23:18;;;;;;;9.52;3.67;;;;;;;;;;4917941;29;20052;-76
2022/06/29 06:26:03;;;;;;;7.03;4.07;;;;;;;;;;4916953;29;20048;-77
2022/06/29 06:28:51;;;;;;;5.60;4.07;;;;;;;;;;4917745;29;20394;-78
2022/06/29 06:31:37;;;;;;;5.20;3.70;;;;;;;;;;4923512;29;20048;-78
2022/06/29 06:34:23;;;;;;;9.57;3.90;;;;;;;;;;4923878;29;20040;-77
2022/06/29 06:37:07;;;;;;;6.65;3.55;;;;;;;;;;4917504;29;20044;-77
2022/06/29 06:42:56;;;;;;;7.50;3.08;;;;;;;;;;4917883;29;20399;-78
2022/06/29 06:45:42;;;;;;;4.32;2.80;;;;;;;;;;4916907;29;20044;-77
2022/06/29 06:48:27;;;;;;;5.75;3.38;;;;;;;;;;4917416;29;20040;-78
2022/06/29 06:51:13;;;;;;;5.72;3.05;;;;;;;;;;4917251;29;20040;-77
2022/06/29 06:53:58;;;;;;;6.40;3.20;;;;;;;;;;4917118;29;20044;-77
2022/06/29 06:56:44;;;;;;;7.55;3.53;;;;;;;;;;4919337;29;20513;-77
2022/06/29 06:59:30;;;;;;;6.90;3.30;;;;;;;;;;4918953;29;20040;-78
2022/06/29 07:02:15;;;;;;;4.43;3.03;;;;;;;;;;4917862;29;20398;-78
2022/06/29 07:05:00;;;;;;;5.97;3.13;;;;;;;;;;4918006;29;20048;-77
2022/06/29 07:07:46;;;;;;;3.42;2.75;;;;;;;;;;4917912;29;20040;-77
2022/06/29 07:10:32;;;;;;;8.95;2.90;;;;;;;;;;4919438;29;20052;-77
2022/06/29 07:13:17;;;;;;;5.68;2.67;;;;;;;;;;4926550;29;20052;-77
2022/06/29 07:16:05;;;;;;;6.00;2.78;;;;;;;;;;4918623;29;20052;-78
2022/06/29 07:18:51;;;;;;;3.90;2.58;;;;;;;;;;4919615;29;20056;-77
2022/06/29 07:21:36;;;;;;;3.72;2.50;;;;;;;;;;4917885;29;20494;-78
2022/06/29 07:24:22;;;;;;;5.93;2.60;;;;;;;;;;4919376;29;20048;-78
2022/06/29 07:27:07;;;;;;;4.72;2.88;;;;;;;;;;4926411;29;20040;-77
2022/06/29 07:29:53;;;;;;;5.07;2.58;;;;;;;;;;4919083;29;20056;-77
2022/06/29 07:32:38;;;;;;;3.33;2.50;;;;;;;;;;4919116;29;20048;-78
2022/06/29 07:35:25;;;;;;;5.28;2.67;;;;;;;;;;4919375;29;20052;-77
2022/06/29 07:38:11;;;;;;;4.57;2.75;;;;;;;;;;4920804;29;20048;-80
2022/06/29 07:40:58;;;;;;;6.43;2.78;;;;;;;;;;4923368;29;20052;-77
2022/06/29 07:43:43;;;;;;;3.28;2.60;;;;;;;;;;4920705;29;20048;-78
2022/06/29 07:46:29;;;;;;;2.83;2.58;;;;;;;;;;4928332;29;20048;-75
2022/06/29 07:49:14;;;;;;;4.55;3.05;;;;;;;;;;4913064;29;20048;-77
2022/06/29 07:51:59;;;;;;;7.95;2.92;;;;;;;;;;4926982;29;20043;-77
2022/06/29 07:54:45;;;;;;;8.30;2.97;;;;;;;;;;4926803;29;20052;-74
2022/06/29 07:57:30;;;;;;;8.25;2.83;;;;;;;;;;4920136;29;20048;-76
2022/06/29 08:00:16;;;;;;;3.67;2.22;;;;;;;;;;4920798;29;20502;-75
2022/06/29 08:03:02;;;;;;;3.15;2.50;;;;;;;;;;4928617;29;20044;-77
2022/06/29 08:05:48;;;;;;;3.88;2.85;;;;;;;;;;4920574;29;20056;-76
2022/06/29 08:08:33;;;;;;;7.25;3.00;;;;;;;;;;4919461;29;20494;-76
2022/06/29 08:11:19;;;;;;;5.07;2.67;;;;;;;;;;4919230;29;20044;-76
2022/06/29 08:14:04;;;;;;;5.13;3.20;;;;;;;;;;4919824;29;20044;-76
2022/06/29 08:16:50;;;;;;;10.77;3.15;;;;;;;;;;4920226;29;20048;-78
2022/06/29 08:19:35;;;;;;;5.28;2.88;;;;;;;;;;4920230;29;20060;-78
2022/06/29 08:22:21;;;;;;;7.75;3.70;;;;;;;;;;4920252;29;20052;-79
2022/06/29 08:25:07;;;;;;;5.65;3.40;;;;;;;;;;4919412;29;20394;-79
2022/06/29 08:27:52;;;;;;;6.75;3.50;;;;;;;;;;4919795;29;20052;-78
2022/06/29 08:30:38;;;;;;;5.45;2.83;;;;;;;;;;4919523;29;20040;-78
2022/06/29 08:33:23;;;;;;;7.07;3.75;;;;;;;;;;4919497;29;20048;-78
2022/06/29 08:36:09;;;;;;;7.60;3.42;;;;;;;;;;4920099;29;20055;-77
2022/06/29 08:38:55;;;;;;;4.97;3.03;;;;;;;;;;4919500;29;20052;-77
2022/06/29 08:41:41;;;;;;;3.80;3.20;;;;;;;;;;4919311;29;20044;-78
2022/06/29 08:44:29;;;;;;;5.88;3.15;;;;;;;;;;4919708;29;20048;-78
2022/06/29 08:47:15;;;;;;;4.90;3.58;;;;;;;;;;4918599;29;20483;-77
2022/06/29 08:50:08;;;;;;;5.72;2.88;;;;;;;;;;4918002;29;20044;-78
2022/06/29 08:52:56;;;;;;;8.73;3.15;;;;;;;;;;4919132;29;20411;-77
2022/06/29 08:55:45;;;;;;;7.10;3.20;;;;;;;;;;4918533;29;20048;-79
2022/06/29 08:58:33;;;;;;;9.02;3.33;;;;;;;;;;4918927;29;20044;-78
2022/06/29 09:01:18;;;;;;;6.30;3.25;;;;;;;;;;4926184;29;20048;-80
2022/06/29 09:04:07;;;;;;;4.80;2.90;;;;;;;;;;4926727;29;20051;-78
2022/06/29 09:06:54;;;;;;;5.80;2.83;;;;;;;;;;4921688;29;20044;-79
2022/06/29 09:10:00;;;;;;;3.63;2.78;;;;;;;;;;4918062;29;20478;-76
2022/06/29 09:12:52;;;;;;;5.70;2.95;;;;;;;;;;4918934;29;20048;-76
2022/06/29 09:15:40;;;;;;;5.78;2.45;;;;;;;;;;4918166;29;20052;-76
2022/06/29 09:18:31;;;;;;;2.95;2.15;;;;;;;;;;4919320;29;20068;-76
2022/06/29 09:21:16;;;;;;;4.68;2.90;;;;;;;;;;4919250;29;20056;-77
2022/06/29 09:24:13;;;;;;;9.20;2.22;;;;;;;;;;4918409;29;20048;-77
2022/06/29 09:27:07;;;;;;;3.33;2.13;;;;;;;;;;4918878;29;20514;-77
2022/06/29 09:29:53;;;;;;;6.17;2.60;;;;;;;;;;4918130;29;20502;-78
2022/06/29 09:32:38;;;;;;;5.72;2.70;;;;;;;;;;4918767;29;20048;-77
2022/06/29 09:35:24;;;;;;;4.30;2.38;;;;;;;;;;4919291;29;20052;-77
2022/06/29 09:38:24;;;;;;;3.85;2.50;;;;;;;;;;4918329;29;20049;-77
2022/06/29 09:41:15;;;;;;;4.55;2.42;;;;;;;;;;4919037;29;20450;-76
2022/06/29 09:44:00;;;;;;;11.63;3.00;;;;;;;;;;4924549;29;20048;-77
2022/06/29 09:46:45;;;;;;;4.05;2.72;;;;;;;;;;4918692;29;20052;-76
2022/06/29 09:49:33;;;;;;;7.85;3.20;;;;;;;;;;4919207;29;20052;-76
2022/06/29 09:52:20;;;;;;;11.88;3.53;;;;;;;;;;4920326;29;20043;-78
2022/06/29 09:55:06;;;;;;;7.65;3.20;;;;;;;;;;4919357;29;20048;-77
2022/06/29 09:57:55;;;;;;;4.60;2.65;;;;;;;;;;4925421;29;20052;-79
2022/06/29 10:03:46;;;;;;;6.97;3.00;;;;;;;;;;4919177;29;20048;-78
2022/06/29 10:06:31;;;;;;;4.25;2.05;;;;;;;;;;4917350;29;20059;-78
2022/06/29 10:09:17;;;;;;;4.50;2.53;;;;;;;;;;4924427;29;20052;-78
2022/06/29 10:15:29;;;;;;;5.30;2.58;;;;;;;;;;4917451;29;20498;-79
2022/06/29 10:18:41;;;;;;;9.00;2.60;;;;;;;;;;4917435;29;20055;-79
2022/06/29 10:21:30;;;;;;;6.30;2.35;;;;;;;;;;4917732;29;20063;-76
2022/06/29 10:24:17;;;;;;;12.23;3.00;;;;;;;;;;4917461;29;20047;-76
2022/06/29 10:27:07;;;;;;;6.15;2.78;;;;;;;;;;4916582;29;20060;-79
2022/06/29 10:30:19;;;;;;;7.72;2.50;;;;;;;;;;4917708;29;20056;-78
2022/06/29 10:33:29;;;;;;;7.18;2.25;;;;;;;;;;4916688;29;20051;-80
2022/06/29 10:36:17;;;;;;;3.25;2.20;;;;;;;;;;4917692;29;20056;-78
2022/06/29 10:39:03;;;;;;;4.45;2.03;;;;;;;;;;4917697;29;20044;-79
2022/06/29 10:45:03;;;;;;;5.30;2.13;;;;;;;;;;4917850;29;20052;-78
2022/06/29 10:47:55;;;;;;;5.57;2.50;;;;;;;;;;4916859;29;20486;-78
2022/06/29 10:50:41;;;;;;;3.90;2.00;;;;;;;;;;4917150;29;20044;-76
2022/06/29 10:53:27;;;;;;;3.08;2.20;;;;;;;;;;4918970;29;20048;-78
2022/06/29 10:56:13;;;;;;;2.20;1.83;;;;;;;;;;4917491;29;20056;-77
2022/06/29 10:58:58;;;;;;;6.35;2.10;;;;;;;;;;4917666;29;20044;-77
2022/06/29 11:02:07;;;;;;;6.00;2.28;;;;;;;;;;4916753;29;20048;-79
2022/06/29 11:04:53;;;;;;;2.80;1.98;;;;;;;;;;4917631;29;20052;-78
2022/06/29 11:15:39;;;;;;;6.18;2.22;;;;;;;;;;4922149;29;20486;-76
2022/06/29 11:17:39;;;;;;;3.28;2.00;;;;;;;;;;4920791;29;20064;-78
2022/06/29 11:20:19;;;;;;;5.07;2.03;;;;;;;;;;4921968;29;20493;-77
2022/06/29 11:23:15;;;;;;;8.32;2.05;;;;;;;;;;4920268;29;20060;-76
2022/06/29 11:26:03;;;;;;;4.05;2.30;;;;;;;;;;4921300;29;20052;-77
2022/06/29 11:28:49;;;;;;;7.78;2.50;;;;;;;;;;4927251;29;20478;-75
2022/06/29 11:31:34;;;;;;;2.00;1.70;;;;;;;;;;4920771;29;20048;-78
2022/06/29 11:34:22;;;;;;;4.38;1.75;;;;;;;;;;4926792;29;20056;-76
2022/06/29 11:37:07;;;;;;;5.90;1.85;;;;;;;;;;4920354;29;20056;-76
2022/06/29 11:39:52;;;;;;;2.50;1.60;;;;;;;;;;4920886;29;20048;-78
2022/06/29 11:45:47;;;;;;;4.20;1.70;;;;;;;;;;4920472;29;20048;-77
2022/06/29 11:49:33;;;;;;;2.85;1.40;;;;;;;;;;4920374;29;20064;-77
2022/06/29 11:51:52;;;;;;;4.15;1.58;;;;;;;;;;4920488;29;20044;-77
2022/06/29 11:54:52;;;;;;;5.47;1.55;;;;;;;;;;4926568;29;20044;-78
2022/06/29 11:57:38;;;;;;;2.95;1.60;;;;;;;;;;4920536;29;20048;-77
2022/06/29 12:00:24;;;;;;;3.92;1.67;;;;;;;;;;4919937;29;20044;-77
2022/06/29 12:03:14;;;;;;;7.57;1.63;;;;;;;;;;4919501;29;20044;-77
2022/06/29 12:06:00;;;;;;;4.18;1.50;;;;;;;;;;4919194;29;20048;-77
2022/06/29 12:08:45;;;;;;;2.65;1.83;;;;;;;;;;4925279;29;20044;-76
2022/06/29 12:11:30;;;;;;;8.20;2.05;;;;;;;;;;4919974;29;20052;-77
2022/06/29 12:14:15;;;;;;;4.95;2.05;;;;;;;;;;4919361;29;20074;-78
2022/06/29 12:17:01;;;;;;;2.72;1.83;;;;;;;;;;4920273;29;20494;-77
2022/06/29 12:19:46;;;;;;;4.45;1.90;;;;;;;;;;4920248;29;20474;-77
2022/06/29 12:22:34;;;;;;;1.95;1.70;;;;;;;;;;4920526;29;20044;-78
2022/06/29 12:25:22;;;;;;;7.82;2.00;;;;;;;;;;4919766;29;20048;-78
2022/06/29 12:28:07;;;;;;;5.65;2.10;;;;;;;;;;4919420;29;20052;-78
2022/06/29 12:30:53;;;;;;;7.80;2.10;;;;;;;;;;4919767;29;20410;-78
2022/06/29 12:33:38;;;;;;;11.77;2.00;;;;;;;;;;4919875;29;20040;-78
2022/06/29 12:36:24;;;;;;;2.30;1.50;;;;;;;;;;4919127;29;20044;-77
2022/06/29 12:39:10;;;;;;;2.17;1.90;;;;;;;;;;4919448;29;20052;-78
2022/06/29 12:41:55;;;;;;;4.30;2.10;;;;;;;;;;4919138;29;20040;-78
2022/06/29 12:44:40;;;;;;;2.10;1.85;;;;;;;;;;4919618;29;20047;-78
2022/06/29 12:47:27;;;;;;;4.80;1.92;;;;;;;;;;4919373;29;20052;-77
2022/06/29 12:50:12;;;;;;;4.47;1.70;;;;;;;;;;4919098;29;20048;-76
2022/06/29 12:52:57;;;;;;;3.17;1.83;;;;;;;;;;4919877;29;20052;-77
2022/06/29 12:55:43;;;;;;;3.40;1.80;;;;;;;;;;4920073;29;20044;-77
2022/06/29 12:58:29;;;;;;;10.35;2.00;;;;;;;;;;4919439;29;20036;-79
2022/06/29 13:01:14;;;;;;;4.45;2.22;;;;;;;;;;4919069;29;20048;-77
2022/06/29 13:03:59;;;;;;;7.82;2.25;;;;;;;;;;4919871;29;20048;-77
2022/06/29 13:06:45;;;;;;;3.58;1.70;;;;;;;;;;4919360;29;20398;-76
2022/06/29 13:09:34;;;;;;;3.90;1.45;;;;;;;;;;4919498;29;20052;-78
2022/06/29 13:12:20;;;;;;;4.57;1.77;;;;;;;;;;4925389;29;20478;-77
2022/06/29 13:15:06;;;;;;;9.77;2.35;;;;;;;;;;4921135;29;20052;-78
2022/06/29 13:17:50;;;;;;;3.50;2.00;;;;;;;;;;4919341;29;20482;-78
2022/06/29 13:20:36;;;;;;;6.10;2.10;;;;;;;;;;4918977;29;20048;-78
2022/06/29 13:23:21;;;;;;;4.03;1.83;;;;;;;;;;4918254;29;20478;-79
2022/06/29 13:26:07;;;;;;;4.97;1.90;;;;;;;;;;4918979;29;20048;-76
2022/06/29 13:28:53;;;;;;;8.35;2.05;;;;;;;;;;4919189;29;20052;-77
2022/06/29 13:31:41;;;;;;;2.83;1.52;;;;;;;;;;4918892;29;20040;-79
2022/06/29 13:34:28;;;;;;;2.78;1.95;;;;;;;;;;4918751;29;20044;-76
2022/06/29 13:37:14;;;;;;;2.95;2.13;;;;;;;;;;4917873;29;20052;-79
2022/06/29 13:39:59;;;;;;;4.65;2.03;;;;;;;;;;4918125;29;20398;-76
2022/06/29 13:42:44;;;;;;;5.20;2.05;;;;;;;;;;4918449;29;20056;-76
2022/06/29 13:45:29;;;;;;;6.30;2.33;;;;;;;;;;4918525;29;20040;-78
2022/06/29 13:48:15;;;;;;;3.95;2.28;;;;;;;;;;4918664;29;20512;-76
2022/06/29 13:51:01;;;;;;;1.80;1.58;;;;;;;;;;4918206;29;20052;-77
2022/06/29 13:53:46;;;;;;;3.85;2.00;;;;;;;;;;4918413;29;20048;-76
2022/06/29 13:56:32;;;;;;;3.72;1.83;;;;;;;;;;4924377;29;20064;-76
2022/06/29 13:59:17;;;;;;;3.40;1.70;;;;;;;;;;4917819;29;20048;-75
2022/06/29 14:02:04;;;;;;;7.70;2.10;;;;;;;;;;4917897;29;20052;-75
2022/06/29 14:04:48;;;;;;;9.98;2.08;;;;;;;;;;4917994;29;20048;-76
2022/06/29 14:07:33;;;;;;;4.07;1.90;;;;;;;;;;4917623;29;20052;-77
2022/06/29 14:10:19;;;;;;;2.90;1.88;;;;;;;;;;4918056;29;20048;-76
2022/06/29 14:13:04;;;;;;;5.18;2.00;;;;;;;;;;4918013;29;20048;-78
2022/06/29 14:15:50;;;;;;;2.83;1.80;;;;;;;;;;4917279;29;20040;-78
2022/06/29 14:18:35;;;;;;;4.70;2.25;;;;;;;;;;4917962;29;20505;-78
2022/06/29 14:21:21;;;;;;;6.88;2.10;;;;;;;;;;4917497;29;20044;-78
2022/06/29 14:24:06;;;;;;;4.70;2.00;;;;;;;;;;4917650;29;20467;-76
2022/06/29 14:26:52;;;;;;;9.90;1.77;;;;;;;;;;4917585;29;20044;-79
2022/06/29 14:29:39;;;;;;;4.07;1.90;;;;;;;;;;4916995;29;20052;-78
2022/06/29 14:32:24;;;;;;;5.35;2.00;;;;;;;;;;4917711;29;20052;-79
2022/06/29 14:35:10;;;;;;;3.40;1.90;;;;;;;;;;4924253;29;20048;-77
2022/06/29 14:37:56;;;;;;;6.15;1.80;;;;;;;;;;4917579;29;20406;-77
2022/06/29 14:40:41;;;;;;;2.95;1.67;;;;;;;;;;4924172;29;20044;-76
2022/06/29 14:43:27;;;;;;;5.18;1.80;;;;;;;;;;4916501;29;20056;-78
2022/06/29 14:46:12;;;;;;;2.75;2.00;;;;;;;;;;4917414;29;20056;-80
2022/06/29 14:48:58;;;;;;;5.43;2.33;;;;;;;;;;4917654;29;20489;-77
2022/06/29 14:51:44;;;;;;;6.50;1.98;;;;;;;;;;4916779;29;20458;-79
2022/06/29 14:54:29;;;;;;;5.30;2.25;;;;;;;;;;4917393;29;20048;-80
2022/06/29 14:57:15;;;;;;;6.68;2.35;;;;;;;;;;4917509;29;20056;-79
2022/06/29 15:00:01;;;;;;;3.58;1.88;;;;;;;;;;4917004;29;20048;-79
2022/06/29 15:02:46;;;;;;;4.15;1.90;;;;;;;;;;4917449;29;20044;-79
2022/06/29 15:05:32;;;;;;;3.20;1.85;;;;;;;;;;4916335;29;20045;-77
2022/06/29 15:08:19;;;;;;;4.05;1.80;;;;;;;;;;4917399;29;20048;-79
2022/06/29 15:11:04;;;;;;;5.30;2.20;;;;;;;;;;4916921;29;20044;-81
2022/06/29 15:13:50;;;;;;;4.43;2.10;;;;;;;;;;4916284;29;20048;-80
2022/06/29 15:16:36;;;;;;;4.32;2.35;;;;;;;;;;4917149;29;20048;-80
2022/06/29 15:19:24;;;;;;;3.63;2.00;;;;;;;;;;4922556;29;20040;-81
2022/06/29 15:22:10;;;;;;;3.97;2.40;;;;;;;;;;4916960;29;20052;-80
2022/06/29 15:24:55;;;;;;;7.60;2.20;;;;;;;;;;4917003;29;20044;-80
2022/06/29 15:27:50;;;;;;;4.50;2.72;;;;;;;;;;4915899;29;20514;-81
2022/06/29 15:30:34;;;;;;;9.07;2.50;;;;;;;;;;4917052;29;20498;-79
2022/06/29 15:39:28;;;;;;;6.07;2.30;;;;;;;;;;4916612;29;20048;-77
2022/06/29 15:42:14;;;;;;;5.20;2.10;;;;;;;;;;4922975;29;20052;-75
2022/06/29 15:45:00;;;;;;;4.60;2.30;;;;;;;;;;4916906;29;20478;-77
2022/06/29 15:47:45;;;;;;;5.60;2.03;;;;;;;;;;4914958;29;20044;-76
2022/06/29 15:50:31;;;;;;;6.82;2.00;;;;;;;;;;4916200;29;20052;-76
2022/06/29 15:56:20;;;;;;;6.03;2.00;;;;;;;;;;4915702;29;20056;-78
2022/06/29 15:59:05;;;;;;;4.63;2.30;;;;;;;;;;4916128;29;20052;-77
2022/06/29 16:01:51;;;;;;;4.32;1.63;;;;;;;;;;4925373;29;20056;-78
2022/06/29 16:04:36;;;;;;;5.13;1.95;;;;;;;;;;4919793;29;20044;-78
2022/06/29 16:07:22;;;;;;;5.68;2.22;;;;;;;;;;4919865;29;20056;-76
2022/06/29 16:10:08;;;;;;;6.88;2.20;;;;;;;;;;4920022;29;20064;-77
2022/06/29 16:12:53;;;;;;;6.47;2.20;;;;;;;;;;4919981;29;20047;-78
2022/06/29 16:15:39;;;;;;;3.17;2.00;;;;;;;;;;4919507;29;20478;-77
2022/06/29 16:18:25;;;;;;;4.80;2.20;;;;;;;;;;4920258;29;20056;-77
2022/06/29 16:21:10;;;;;;;4.47;2.20;;;;;;;;;;4919896;29;20040;-77
2022/06/29 16:23:56;;;;;;;5.25;1.98;;;;;;;;;;4919546;29;20044;-79
2022/06/29 16:26:41;;;;;;;6.28;1.92;;;;;;;;;;4920364;29;20036;-79
2022/06/29 16:29:27;;;;;;;3.65;2.13;;;;;;;;;;4919559;29;20040;-77
2022/06/29 16:32:12;;;;;;;4.53;2.33;;;;;;;;;;4919485;29;20406;-76
2022/06/29 16:34:58;;;;;;;2.85;2.08;;;;;;;;;;4919251;29;20401;-75
2022/06/29 16:37:44;;;;;;;4.20;2.10;;;;;;;;;;4919150;29;20131;-78
2022/06/29 16:40:29;;;;;;;3.83;1.77;;;;;;;;;;4925627;29;20052;-76
2022/06/29 16:43:15;;;;;;;5.20;2.13;;;;;;;;;;4919568;29;20056;-77
2022/06/29 16:46:00;;;;;;;7.45;2.33;;;;;;;;;;4918966;29;20040;-78
2022/06/29 16:48:46;;;;;;;5.00;2.30;;;;;;;;;;4919342;29;20048;-80
2022/06/29 16:51:32;;;;;;;5.13;2.22;;;;;;;;;;4918620;29;20048;-78
2022/06/29 16:54:17;;;;;;;5.88;2.10;;;;;;;;;;4919052;29;20048;-77
2022/06/29 16:57:03;;;;;;;6.70;2.42;;;;;;;;;;4919116;29;20052;-79
2022/06/29 16:59:48;;;;;;;5.00;2.17;;;;;;;;;;4925205;29;20044;-79
2022/06/29 17:02:34;;;;;;;5.68;2.40;;;;;;;;;;4918975;29;20494;-78
2022/06/29 17:05:19;;;;;;;4.95;2.30;;;;;;;;;;4918427;29;20056;-78
2022/06/29 17:08:05;;;;;;;5.13;2.00;;;;;;;;;;4925158;29;20044;-77
2022/06/29 17:10:51;;;;;;;7.32;2.17;;;;;;;;;;4924162;29;20048;-78
2022/06/29 17:13:36;;;;;;;6.13;2.22;;;;;;;;;;4917870;29;20044;-76